createdAt,value
2022-09-13T00:01:17.918Z,3.17
2022-09-13T00:03:49.851Z,3.15
2022-09-13T00:06:23.064Z,3.95
2022-09-13T00:08:55.075Z,3.80
2022-09-13T00:11:29.664Z,3.30
2022-09-13T00:14:01.577Z,3.40
2022-09-13T00:16:33.513Z,3.40
2022-09-13T00:19:05.763Z,3.55
2022-09-13T00:21:37.925Z,3.50
2022-09-13T00:24:10.691Z,3.52
2022-09-13T00:26:42.796Z,3.98
2022-09-13T00:29:14.832Z,3.37
2022-09-13T00:31:46.796Z,3.40
2022-09-13T00:34:18.705Z,3.17
2022-09-13T00:36:50.592Z,3.35
2022-09-13T00:39:22.967Z,3.17
2022-09-13T00:41:55.127Z,3.10
2022-09-13T00:45:00.014Z,3.30
2022-09-13T00:47:39.261Z,4.85
2022-09-13T00:50:19.959Z,3.65
2022-09-13T00:52:57.930Z,4.12
2022-09-13T00:55:35.536Z,3.80
2022-09-13T00:58:10.536Z,3.75
2022-09-13T01:00:43.509Z,3.40
2022-09-13T01:03:18.174Z,3.47
2022-09-13T01:05:52.961Z,4.35
2022-09-13T01:08:25.312Z,3.50
2022-09-13T01:11:00.210Z,3.47
2022-09-13T01:13:35.065Z,4.00
2022-09-13T01:16:07.532Z,4.10
2022-09-13T01:18:39.503Z,4.00
2022-09-13T01:21:45.884Z,3.80
2022-09-13T01:24:32.831Z,4.30
2022-09-13T01:27:42.904Z,4.03
2022-09-13T01:30:18.253Z,3.58
2022-09-13T01:33:24.205Z,4.15
2022-09-13T01:36:31.973Z,3.90
2022-09-13T01:39:09.416Z,4.03
2022-09-13T01:42:07.015Z,4.03
2022-09-13T01:45:01.013Z,4.50
2022-09-13T01:47:46.254Z,4.50
2022-09-13T01:50:23.785Z,4.85
2022-09-13T01:53:10.161Z,4.12
2022-09-13T01:55:47.499Z,4.35
2022-09-13T01:58:22.318Z,4.62
2022-09-13T02:01:06.279Z,4.70
2022-09-13T02:03:47.028Z,4.58
2022-09-13T02:06:22.269Z,3.83
2022-09-13T02:09:01.025Z,3.70
2022-09-13T02:11:35.027Z,4.40
2022-09-13T02:14:15.336Z,4.05
2022-09-13T02:16:50.997Z,4.17
2022-09-13T02:19:29.366Z,3.87
2022-09-13T02:22:03.797Z,4.35
2022-09-13T02:24:38.632Z,4.33
2022-09-13T02:27:16.496Z,4.22
2022-09-13T02:29:51.761Z,3.87
2022-09-13T02:32:30.262Z,3.98
2022-09-13T02:35:08.041Z,4.55
2022-09-13T02:37:42.222Z,4.22
2022-09-13T02:40:21.566Z,4.05
2022-09-13T02:42:59.481Z,4.00
2022-09-13T02:45:34.453Z,3.98
2022-09-13T02:48:16.480Z,3.98
2022-09-13T02:51:09.452Z,4.83
2022-09-13T02:53:47.194Z,4.20
2022-09-13T02:56:34.678Z,4.10
2022-09-13T02:59:18.929Z,3.83
2022-09-13T03:01:59.853Z,4.37
2022-09-13T03:04:31.902Z,4.55
2022-09-13T03:07:07.780Z,4.40
2022-09-13T03:09:42.764Z,4.53
2022-09-13T03:12:17.789Z,4.05
2022-09-13T03:14:55.615Z,4.25
2022-09-13T03:17:52.924Z,4.37
2022-09-13T03:20:52.858Z,4.87
2022-09-13T03:23:33.435Z,4.80
2022-09-13T03:26:11.153Z,4.60
2022-09-13T03:28:55.009Z,4.17
2022-09-13T03:31:54.082Z,4.20
2022-09-13T03:34:41.079Z,4.25
2022-09-13T03:37:35.895Z,4.47
2022-09-13T03:40:19.820Z,4.15
2022-09-13T03:43:06.635Z,4.37
2022-09-13T03:45:47.652Z,4.30
2022-09-13T03:48:20.846Z,4.50
2022-09-13T03:50:52.961Z,4.33
2022-09-13T03:53:31.087Z,4.80
2022-09-13T03:56:05.094Z,4.75
2022-09-13T03:58:37.121Z,5.20
2022-09-13T04:01:10.623Z,4.67
2022-09-13T04:03:42.801Z,5.85
2022-09-13T04:06:14.974Z,6.00
2022-09-13T04:08:47.366Z,5.85
2022-09-13T04:11:20.824Z,5.25
2022-09-13T04:13:52.860Z,4.37
2022-09-13T04:16:25.051Z,4.78
2022-09-13T04:18:57.175Z,4.53
2022-09-13T04:21:29.224Z,4.80
2022-09-13T04:24:01.151Z,5.05
2022-09-13T04:26:34.983Z,4.72
2022-09-13T04:29:07.039Z,5.73
2022-09-13T04:31:39.474Z,5.20
2022-09-13T04:34:11.834Z,5.47
2022-09-13T04:36:44.226Z,5.62
2022-09-13T04:39:16.378Z,5.50
2022-09-13T04:41:49.972Z,6.10
2022-09-13T04:44:23.184Z,5.33
2022-09-13T04:46:55.913Z,6.22
2022-09-13T04:49:28.059Z,5.05
2022-09-13T04:52:00.377Z,5.10
2022-09-13T04:54:32.330Z,6.30
2022-09-13T04:57:04.345Z,4.67
2022-09-13T04:59:36.548Z,5.25
2022-09-13T05:02:08.554Z,4.87
2022-09-13T05:04:40.839Z,5.08
2022-09-13T05:07:13.035Z,5.33
2022-09-13T05:09:45.369Z,5.03
2022-09-13T05:12:17.258Z,4.95
2022-09-13T05:14:49.408Z,5.08
2022-09-13T05:17:21.964Z,4.83
2022-09-13T05:19:54.016Z,4.90
2022-09-13T05:22:27.131Z,5.08
2022-09-13T05:24:59.344Z,5.20
2022-09-13T05:27:32.580Z,5.08
2022-09-13T05:30:05.267Z,4.75
2022-09-13T05:32:37.504Z,6.00
2022-09-13T05:35:10.049Z,5.05
2022-09-13T05:37:42.157Z,5.65
2022-09-13T05:40:14.450Z,5.08
2022-09-13T05:42:46.510Z,4.97
2022-09-13T05:45:18.914Z,5.78
2022-09-13T05:47:52.915Z,6.97
2022-09-13T05:50:54.208Z,5.62
2022-09-13T05:52:58.867Z,5.10
2022-09-13T05:55:31.394Z,5.15
2022-09-13T05:58:04.102Z,5.30
2022-09-13T06:00:36.043Z,5.42
2022-09-13T06:03:08.947Z,5.25
2022-09-13T06:05:41.167Z,5.92
2022-09-13T06:08:13.413Z,6.45
2022-09-13T06:10:45.503Z,5.10
2022-09-13T06:13:17.574Z,5.17
2022-09-13T06:15:49.806Z,5.25
2022-09-13T06:18:22.167Z,7.37
2022-09-13T06:21:00.379Z,6.20
2022-09-13T06:23:33.014Z,5.85
2022-09-13T06:26:07.324Z,6.15
2022-09-13T06:28:40.423Z,6.62
2022-09-13T06:31:15.938Z,8.08
2022-09-13T06:33:48.092Z,5.92
2022-09-13T06:36:20.853Z,5.83
2022-09-13T06:38:53.010Z,5.85
2022-09-13T06:41:27.477Z,5.92
2022-09-13T06:44:02.904Z,6.28
2022-09-13T06:46:37.234Z,6.00
2022-09-13T06:49:11.092Z,5.00
2022-09-13T06:51:43.077Z,5.50
2022-09-13T06:54:15.130Z,4.87
2022-09-13T06:56:47.312Z,5.72
2022-09-13T06:59:19.310Z,8.13
2022-09-13T07:01:51.853Z,5.60
2022-09-13T07:04:24.378Z,4.92
2022-09-13T07:06:56.594Z,5.50
2022-09-13T07:09:28.965Z,5.62
2022-09-13T07:12:01.144Z,5.80
2022-09-13T07:14:33.861Z,5.42
2022-09-13T07:17:06.228Z,5.50
2022-09-13T07:19:38.607Z,5.05
2022-09-13T07:22:10.750Z,5.28
2022-09-13T07:24:42.677Z,5.58
2022-09-13T07:27:16.995Z,4.58
2022-09-13T07:29:48.880Z,4.08
2022-09-13T07:32:21.054Z,4.60
2022-09-13T07:34:53.286Z,4.80
2022-09-13T07:37:25.379Z,4.30
2022-09-13T07:39:57.622Z,5.15
2022-09-13T07:42:29.772Z,4.35
2022-09-13T07:45:02.170Z,4.33
2022-09-13T07:47:34.925Z,4.70
2022-09-13T07:50:07.295Z,5.28
2022-09-13T07:52:40.331Z,5.42
2022-09-13T07:55:12.302Z,8.03
2022-09-13T07:57:44.463Z,7.08
2022-09-13T08:00:16.883Z,4.30
2022-09-13T08:02:48.913Z,4.12
2022-09-13T08:05:21.041Z,3.05
2022-09-13T08:07:53.080Z,3.40
2022-09-13T08:10:25.456Z,3.83
2022-09-13T08:12:57.796Z,3.40
2022-09-13T08:15:30.325Z,4.10
2022-09-13T08:18:02.430Z,3.62
2022-09-13T08:20:39.228Z,3.47
2022-09-13T08:23:12.645Z,2.90
2022-09-13T08:25:44.736Z,2.47
2022-09-13T08:28:19.253Z,2.70
2022-09-13T08:30:51.248Z,3.02
2022-09-13T08:33:23.451Z,2.92
2022-09-13T08:35:55.760Z,2.77
2022-09-13T08:38:27.887Z,3.10
2022-09-13T08:41:02.768Z,3.45
2022-09-13T08:43:54.089Z,4.67
2022-09-13T08:46:32.549Z,3.37
2022-09-13T08:49:07.407Z,3.77
2022-09-13T08:51:52.041Z,4.03
2022-09-13T08:54:24.168Z,3.60
2022-09-13T08:57:11.046Z,3.40
2022-09-13T09:00:08.738Z,3.50
2022-09-13T09:02:50.110Z,3.37
2022-09-13T09:05:33.760Z,3.70
2022-09-13T09:08:17.632Z,4.08
2022-09-13T09:10:52.101Z,3.02
2022-09-13T09:13:33.084Z,3.70
2022-09-13T09:16:14.121Z,3.75
2022-09-13T09:18:48.793Z,3.08
2022-09-13T09:21:22.147Z,2.27
2022-09-13T09:23:57.017Z,2.20
2022-09-13T09:26:31.604Z,2.20
2022-09-13T09:29:25.077Z,2.35
2022-09-13T09:32:15.459Z,2.22
2022-09-13T09:35:09.093Z,3.33
2022-09-13T09:37:42.240Z,2.30
2022-09-13T09:40:17.648Z,1.65
2022-09-13T09:42:52.910Z,2.67
2022-09-13T09:45:30.907Z,2.37
2022-09-13T09:48:05.816Z,3.50
2022-09-13T09:50:42.251Z,2.65
2022-09-13T09:53:27.858Z,2.37
2022-09-13T09:56:05.872Z,4.30
2022-09-13T09:58:43.433Z,2.08
2022-09-13T10:01:25.571Z,1.87
2022-09-13T10:04:16.605Z,2.02
2022-09-13T10:06:50.229Z,2.72
2022-09-13T10:09:24.188Z,2.67
2022-09-13T10:11:59.011Z,2.37
2022-09-13T10:14:40.292Z,2.12
2022-09-13T10:17:31.019Z,2.12
2022-09-13T10:20:06.120Z,2.92
2022-09-13T10:22:38.538Z,2.65
2022-09-13T10:25:18.746Z,2.12
2022-09-13T10:27:57.297Z,2.10
2022-09-13T10:30:38.310Z,2.50
2022-09-13T10:33:22.125Z,1.60
2022-09-13T10:35:57.774Z,2.65
2022-09-13T10:38:32.747Z,2.00
2022-09-13T10:41:08.157Z,3.05
2022-09-13T10:43:41.100Z,1.60
2022-09-13T10:46:16.023Z,2.65
2022-09-13T10:48:59.550Z,1.67
2022-09-13T10:51:36.233Z,2.20
2022-09-13T10:54:23.522Z,1.62
2022-09-13T10:56:55.891Z,2.60
2022-09-13T10:59:33.199Z,2.37
2022-09-13T11:02:35.425Z,3.08
2022-09-13T11:05:29.064Z,2.15
2022-09-13T11:08:16.241Z,1.77
2022-09-13T11:10:57.415Z,2.30
2022-09-13T11:13:32.608Z,4.67
2022-09-13T11:16:22.737Z,2.60
2022-09-13T11:19:20.591Z,2.27
2022-09-13T11:22:07.528Z,3.20
2022-09-13T11:24:45.375Z,2.27
2022-09-13T11:27:23.684Z,2.10
2022-09-13T11:30:18.538Z,1.98
2022-09-13T11:32:56.352Z,1.60
2022-09-13T11:36:04.226Z,1.87
2022-09-13T11:38:42.226Z,1.60
2022-09-13T11:41:31.534Z,2.22
2022-09-13T11:44:36.525Z,1.67
2022-09-13T11:47:17.296Z,1.90
2022-09-13T11:50:01.130Z,1.92
2022-09-13T11:53:00.100Z,1.90
2022-09-13T11:55:37.926Z,1.45
2022-09-13T11:58:18.852Z,1.75
2022-09-13T12:00:53.962Z,1.80
2022-09-13T12:03:43.908Z,1.82
2022-09-13T12:06:22.109Z,1.90
2022-09-13T12:08:57.044Z,2.17
2022-09-13T12:11:41.630Z,2.27
2022-09-13T12:14:25.217Z,2.12
2022-09-13T12:17:00.387Z,1.62
2022-09-13T12:19:44.294Z,1.82
2022-09-13T12:22:16.950Z,2.33
2022-09-13T12:24:55.752Z,2.12
2022-09-13T12:27:42.410Z,1.75
2022-09-13T12:30:20.790Z,1.52
2022-09-13T12:32:58.039Z,1.47
2022-09-13T12:35:35.917Z,1.70
2022-09-13T12:38:22.964Z,2.20
2022-09-13T12:41:20.515Z,2.08
2022-09-13T12:44:04.264Z,2.27
2022-09-13T12:47:01.016Z,2.30
2022-09-13T12:49:53.234Z,10.20
2022-09-13T12:52:57.104Z,3.02
2022-09-13T12:55:47.151Z,1.77
2022-09-13T12:58:44.386Z,2.40
2022-09-13T13:01:19.737Z,2.05
2022-09-13T13:03:54.848Z,2.52
2022-09-13T13:06:33.632Z,3.37
2022-09-13T13:09:40.986Z,2.35
2022-09-13T13:12:31.043Z,2.20
2022-09-13T13:15:09.540Z,2.67
2022-09-13T13:17:51.295Z,1.57
2022-09-13T13:20:44.732Z,1.87
2022-09-13T13:23:23.691Z,3.27
2022-09-13T13:26:30.040Z,2.00
2022-09-13T13:29:08.009Z,1.57
2022-09-13T13:31:42.701Z,1.70
2022-09-13T13:34:20.609Z,1.92
2022-09-13T13:37:13.376Z,2.20
2022-09-13T13:39:48.236Z,2.00
2022-09-13T13:42:34.455Z,1.90
2022-09-13T13:45:09.747Z,2.17
2022-09-13T13:47:44.707Z,2.55
2022-09-13T13:50:20.156Z,3.40
2022-09-13T13:52:56.893Z,2.92
2022-09-13T13:55:49.747Z,2.35
2022-09-13T13:58:27.823Z,2.12
2022-09-13T14:01:03.076Z,2.25
2022-09-13T14:03:44.120Z,1.98
2022-09-13T14:06:28.031Z,2.10
2022-09-13T14:09:06.375Z,2.40
2022-09-13T14:12:05.347Z,2.33
2022-09-13T14:15:05.522Z,1.70
2022-09-13T14:17:46.221Z,2.30
2022-09-13T14:20:21.584Z,3.05
2022-09-13T14:22:55.163Z,2.33
2022-09-13T14:25:27.917Z,2.87
2022-09-13T14:28:02.519Z,1.92
2022-09-13T14:30:37.674Z,1.70
2022-09-13T14:33:13.201Z,2.10
2022-09-13T14:35:46.437Z,2.98
2022-09-13T14:38:25.600Z,1.60
2022-09-13T14:41:06.821Z,2.27
2022-09-13T14:43:39.827Z,4.20
2022-09-13T14:46:32.885Z,1.82
2022-09-13T14:49:08.377Z,1.70
2022-09-13T14:51:49.876Z,2.15
2022-09-13T14:54:36.882Z,1.50
2022-09-13T14:57:12.211Z,1.65
2022-09-13T14:59:48.045Z,2.30
2022-09-13T15:02:26.555Z,1.72
2022-09-13T15:05:01.427Z,1.60
2022-09-13T15:07:38.746Z,1.60
2022-09-13T15:10:25.638Z,2.40
2022-09-13T15:13:10.549Z,2.10
2022-09-13T15:18:21.199Z,1.65
2022-09-13T15:21:09.862Z,1.92
2022-09-13T15:23:44.422Z,1.62
2022-09-13T15:26:26.111Z,2.08
2022-09-13T15:29:05.588Z,2.33
2022-09-13T15:31:38.257Z,1.82
2022-09-13T15:34:22.374Z,1.57
2022-09-13T15:37:15.838Z,2.10
2022-09-13T15:39:51.053Z,2.70
2022-09-13T15:42:23.264Z,1.80
2022-09-13T15:44:55.404Z,2.05
2022-09-13T15:47:27.501Z,2.42
2022-09-13T15:50:00.044Z,2.05
2022-09-13T15:52:33.671Z,2.37
2022-09-13T15:55:06.560Z,1.98
2022-09-13T15:57:38.778Z,1.95
2022-09-13T16:00:19.560Z,1.72
2022-09-13T16:02:52.491Z,2.62
2022-09-13T16:05:27.706Z,2.12
2022-09-13T16:08:00.692Z,1.95
2022-09-13T16:10:33.391Z,2.22
2022-09-13T16:13:05.869Z,1.98
2022-09-13T16:15:38.573Z,2.00
2022-09-13T16:18:12.791Z,2.17
2022-09-13T16:20:46.452Z,2.55
2022-09-13T16:23:19.124Z,2.55
2022-09-13T16:25:54.226Z,2.10
2022-09-13T16:28:27.185Z,1.70
2022-09-13T16:30:59.365Z,2.35
2022-09-13T16:33:31.767Z,2.60
2022-09-13T16:36:04.047Z,2.67
2022-09-13T16:38:36.157Z,2.20
2022-09-13T16:41:09.292Z,2.12
2022-09-13T16:43:41.664Z,2.58
2022-09-13T16:46:15.174Z,3.25
2022-09-13T16:48:49.535Z,2.67
2022-09-13T16:51:22.314Z,2.72
2022-09-13T16:53:55.323Z,2.35
2022-09-13T16:56:27.889Z,2.90
2022-09-13T16:59:00.504Z,2.60
2022-09-13T17:01:32.795Z,2.50
2022-09-13T17:04:06.058Z,2.72
2022-09-13T17:06:39.157Z,2.40
2022-09-13T17:09:12.931Z,2.50
2022-09-13T17:11:46.300Z,2.60
2022-09-13T17:14:19.005Z,2.77
2022-09-13T17:16:57.151Z,2.75
2022-09-13T17:19:33.783Z,2.87
2022-09-13T17:22:08.226Z,2.30
2022-09-13T17:24:42.444Z,2.50
2022-09-13T17:27:15.384Z,2.73
2022-09-13T17:29:48.012Z,2.72
2022-09-13T17:32:21.221Z,3.70
2022-09-13T17:34:53.921Z,2.70
2022-09-13T17:37:28.013Z,1.82
2022-09-13T17:40:03.542Z,3.13
2022-09-13T17:42:37.011Z,2.00
2022-09-13T17:45:10.766Z,3.22
2022-09-13T17:47:43.857Z,2.98
2022-09-13T17:50:17.292Z,2.50
2022-09-13T17:52:51.073Z,2.45
2022-09-13T17:55:23.892Z,2.40
2022-09-13T17:57:56.147Z,2.95
2022-09-13T18:00:29.273Z,2.98
2022-09-13T18:03:02.686Z,3.75
2022-09-13T18:05:35.693Z,2.60
2022-09-13T18:08:08.390Z,2.72
2022-09-13T18:10:58.498Z,2.50
2022-09-13T18:13:15.605Z,1.72
2022-09-13T18:15:50.200Z,2.45
2022-09-13T18:18:24.382Z,2.60
2022-09-13T18:20:57.312Z,2.22
2022-09-13T18:23:29.979Z,2.37
2022-09-13T18:26:11.174Z,3.33
2022-09-13T18:28:44.134Z,2.40
2022-09-13T18:31:18.585Z,2.30
2022-09-13T18:33:57.350Z,2.30
2022-09-13T18:36:31.320Z,2.77
2022-09-13T18:39:04.741Z,2.80
2022-09-13T18:41:41.006Z,2.40
2022-09-13T18:44:14.342Z,3.12
2022-09-13T18:46:47.717Z,2.75
2022-09-13T18:49:20.249Z,3.47
2022-09-13T18:51:53.016Z,2.80
2022-09-13T18:54:25.007Z,3.45
2022-09-13T18:56:57.346Z,3.37
2022-09-13T18:59:31.282Z,2.70
2022-09-13T19:02:04.721Z,2.98
2022-09-13T19:04:38.831Z,2.63
2022-09-13T19:07:13.810Z,2.77
2022-09-13T19:09:46.294Z,2.80
2022-09-13T19:12:18.753Z,3.02
2022-09-13T19:14:51.382Z,2.62
2022-09-13T19:17:23.506Z,3.05
2022-09-13T19:19:55.882Z,2.62
2022-09-13T19:22:31.104Z,2.72
2022-09-13T19:25:03.903Z,3.60
2022-09-13T19:27:35.954Z,3.27
2022-09-13T19:30:08.746Z,2.30
2022-09-13T19:32:40.982Z,2.70
2022-09-13T19:35:13.302Z,2.98
2022-09-13T19:37:45.338Z,3.75
2022-09-13T19:40:17.434Z,3.12
2022-09-13T19:42:49.830Z,3.10
2022-09-13T19:45:23.182Z,3.33
2022-09-13T19:48:37.030Z,3.12
2022-09-13T19:50:29.738Z,3.05
2022-09-13T19:53:01.784Z,3.45
2022-09-13T19:55:33.793Z,2.92
2022-09-13T19:58:06.013Z,2.98
2022-09-13T20:00:38.930Z,3.20
2022-09-13T20:03:11.846Z,3.22
2022-09-13T20:05:43.895Z,3.25
2022-09-13T20:08:16.345Z,3.33
2022-09-13T20:10:48.527Z,2.90
2022-09-13T20:13:20.616Z,2.83
2022-09-13T20:15:53.152Z,2.70
2022-09-13T20:18:25.433Z,2.75
2022-09-13T20:20:58.874Z,2.98
2022-09-13T20:23:30.831Z,2.70
2022-09-13T20:26:03.699Z,3.30
2022-09-13T20:28:36.409Z,3.02
2022-09-13T20:31:08.975Z,3.55
2022-09-13T20:33:42.980Z,3.58
2022-09-13T20:36:15.751Z,2.80
2022-09-13T20:38:49.986Z,3.12
2022-09-13T20:41:22.753Z,2.17
2022-09-13T20:43:55.163Z,2.33
2022-09-13T20:46:27.523Z,2.80
2022-09-13T20:49:01.297Z,2.60
2022-09-13T20:51:34.844Z,2.25
2022-09-13T20:54:07.170Z,4.08
2022-09-13T20:56:39.413Z,2.60
2022-09-13T20:59:11.922Z,2.50
2022-09-13T21:01:44.087Z,2.50
2022-09-13T21:04:17.593Z,2.55
2022-09-13T21:07:10.976Z,3.00
2022-09-13T21:09:40.795Z,2.55
2022-09-13T21:12:14.443Z,2.83
2022-09-13T21:14:48.004Z,4.28
2022-09-13T21:17:20.332Z,2.77
2022-09-13T21:19:53.091Z,2.98
2022-09-13T21:22:25.280Z,3.10
2022-09-13T21:24:57.305Z,2.80
2022-09-13T21:27:29.321Z,2.65
2022-09-13T21:30:02.180Z,2.42
2022-09-13T21:32:34.725Z,3.22
2022-09-13T21:35:07.116Z,2.72
2022-09-13T21:37:39.191Z,2.80
2022-09-13T21:40:11.767Z,2.62
2022-09-13T21:42:43.892Z,2.92
2022-09-13T21:45:15.995Z,2.98
2022-09-13T21:47:49.430Z,3.25
2022-09-13T21:50:21.221Z,2.52
2022-09-13T21:52:53.256Z,2.95
2022-09-13T21:55:26.957Z,2.65
2022-09-13T21:57:59.495Z,6.33
2022-09-13T22:00:31.565Z,3.17
2022-09-13T22:03:03.431Z,2.85
2022-09-13T22:05:35.403Z,3.05
2022-09-13T22:08:07.293Z,2.70
2022-09-13T22:10:39.514Z,2.85
2022-09-13T22:13:11.514Z,2.98
2022-09-13T22:15:43.455Z,2.80
2022-09-13T22:18:15.411Z,2.62
2022-09-13T22:20:47.559Z,2.98
2022-09-13T22:23:19.687Z,3.40
2022-09-13T22:25:53.062Z,3.00
2022-09-13T22:28:25.015Z,3.42
2022-09-13T22:30:57.055Z,3.05
2022-09-13T22:33:29.121Z,2.80
2022-09-13T22:36:03.205Z,2.70
2022-09-13T22:38:36.191Z,2.98
2022-09-13T22:41:11.552Z,3.30
2022-09-13T22:43:44.111Z,2.83
2022-09-13T22:46:21.623Z,2.77
2022-09-13T22:48:55.395Z,3.27
2022-09-13T22:51:27.953Z,3.53
2022-09-13T22:54:06.254Z,2.60
2022-09-13T22:56:35.566Z,2.42
2022-09-13T22:59:10.678Z,2.83
2022-09-13T23:01:43.034Z,2.95
2022-09-13T23:04:15.640Z,3.30
2022-09-13T23:06:47.972Z,3.40
2022-09-13T23:09:20.305Z,2.80
2022-09-13T23:11:52.210Z,2.70
2022-09-13T23:14:24.155Z,3.30
2022-09-13T23:16:56.543Z,2.85
2022-09-13T23:19:29.729Z,2.80
2022-09-13T23:22:01.711Z,2.72
2022-09-13T23:24:33.780Z,4.47
2022-09-13T23:27:06.441Z,3.08
2022-09-13T23:29:38.326Z,3.22
2022-09-13T23:32:10.543Z,2.60
2022-09-13T23:34:42.599Z,2.30
2022-09-13T23:37:14.521Z,2.58
2022-09-13T23:39:46.563Z,2.42
2022-09-13T23:42:18.501Z,2.60
2022-09-13T23:44:50.452Z,2.52
2022-09-13T23:47:22.606Z,2.40
2022-09-13T23:49:54.533Z,2.35
2022-09-13T23:52:26.380Z,2.58
2022-09-13T23:54:59.920Z,2.77
2022-09-13T23:57:32.627Z,4.70
